Time;durP1;ratioP1;P1;durP2;ratioP2;P2;SDS_P1;SDS_P2;PMS_P1;PMS_P2;Temp;Humidity;BMP_temperature;BMP_pressure;BME280_temperature;BME280_humidity;BME280_pressure;Samples;Min_cycle;Max_cycle;Signal;HPM_P1;HPM_P2
2023/05/06 00:00:21;;;;;;;33.55;27.30;;;;;;;10.09;100.00;101493.53;5098755;28;20040;-49
2023/05/06 00:02:46;;;;;;;34.50;28.33;;;;;;;10.03;100.00;101490.72;5098489;28;20103;-48
2023/05/06 00:05:12;;;;;;;34.42;26.95;;;;;;;10.02;100.00;101494.13;5099404;28;20111;-52
2023/05/06 00:07:38;;;;;;;32.38;27.08;;;;;;;9.94;100.00;101487.75;5099392;28;20020;-47
2023/05/06 00:10:04;;;;;;;39.38;29.15;;;;;;;9.98;100.00;101497.34;5098238;28;20506;-50
2023/05/06 00:12:29;;;;;;;37.95;29.58;;;;;;;9.94;100.00;101490.31;5098978;28;20024;-47
2023/05/06 00:14:55;;;;;;;34.95;29.58;;;;;;;9.83;100.00;101488.16;5098228;28;20414;-47
2023/05/06 00:17:21;;;;;;;33.83;27.23;;;;;;;9.75;100.00;101488.66;5099068;28;20099;-48
2023/05/06 00:19:46;;;;;;;32.22;27.52;;;;;;;9.75;100.00;101488.66;5099030;28;20069;-48
2023/05/06 00:22:12;;;;;;;36.15;29.05;;;;;;;9.65;100.00;101477.97;5098471;28;20028;-47
2023/05/06 00:24:37;;;;;;;34.95;28.52;;;;;;;9.64;100.00;101475.31;5098849;28;20028;-50
2023/05/06 00:27:02;;;;;;;33.40;28.25;;;;;;;9.54;100.00;101484.31;5099089;28;20379;-49
2023/05/06 00:29:28;;;;;;;37.13;29.38;;;;;;;9.56;100.00;101480.13;5097982;28;20063;-49
2023/05/06 00:31:53;;;;;;;35.60;29.05;;;;;;;9.55;100.00;101480.94;5098967;28;20479;-48
2023/05/06 00:34:18;;;;;;;41.55;31.13;;;;;;;9.53;100.00;101480.88;5098818;28;20032;-48
2023/05/06 00:36:44;;;;;;;35.00;28.55;;;;;;;9.39;100.00;101469.09;5098361;28;20046;-48
2023/05/06 00:39:09;;;;;;;39.80;31.17;;;;;;;9.40;100.00;101470.88;5094491;28;20024;-48
2023/05/06 00:41:35;;;;;;;41.38;32.55;;;;;;;9.35;100.00;101477.50;5095296;28;20040;-47
2023/05/06 00:44:00;;;;;;;42.83;33.17;;;;;;;9.31;100.00;101470.44;5094979;28;20028;-50
2023/05/06 00:46:26;;;;;;;41.08;32.67;;;;;;;9.31;100.00;101478.16;5095252;28;20032;-52
2023/05/06 00:48:52;;;;;;;34.25;30.40;;;;;;;9.25;100.00;101480.47;5095546;28;20533;-47
2023/05/06 00:51:17;;;;;;;38.47;31.75;;;;;;;9.30;100.00;101479.00;5094704;28;20028;-48
2023/05/06 00:53:46;;;;;;;40.45;32.83;;;;;;;9.23;100.00;101480.38;5095729;28;20491;-48
2023/05/06 00:56:12;;;;;;;41.63;33.47;;;;;;;9.16;100.00;101468.94;5095633;28;20020;-47
2023/05/06 00:58:37;;;;;;;39.53;32.28;;;;;;;9.18;100.00;101474.16;5094398;28;20035;-49
2023/05/06 01:01:03;;;;;;;42.00;32.78;;;;;;;9.10;100.00;101468.66;5095274;28;20056;-47
2023/05/06 01:03:28;;;;;;;41.45;32.85;;;;;;;9.06;100.00;101464.19;5095140;28;20055;-50
2023/05/06 01:06:10;;;;;;;37.63;32.17;;;;;;;9.01;100.00;101465.66;5094479;28;20024;-50
2023/05/06 01:08:52;;;;;;;38.40;32.33;;;;;;;8.93;100.00;101467.03;5094965;28;20059;-52
2023/05/06 01:11:32;;;;;;;37.25;31.17;;;;;;;8.86;100.00;101474.44;5094065;28;20032;-49
2023/05/06 01:14:05;;;;;;;34.58;29.02;;;;;;;8.84;100.00;101472.59;5095307;28;20048;-49
2023/05/06 01:16:31;;;;;;;38.03;32.35;;;;;;;8.90;100.00;101462.63;5094836;28;20464;-49
2023/05/06 01:18:58;;;;;;;36.33;31.25;;;;;;;8.83;100.00;101466.59;5094149;28;20483;-47
2023/05/06 01:21:25;;;;;;;40.15;33.88;;;;;;;8.82;100.00;101459.69;5094707;28;20519;-50
2023/05/06 01:23:51;;;;;;;40.88;33.58;;;;;;;8.80;100.00;101460.44;5095000;28;20035;-50
2023/05/06 01:26:16;;;;;;;36.25;32.05;;;;;;;8.73;100.00;101459.28;5093982;28;20032;-49
2023/05/06 01:28:41;;;;;;;42.28;34.15;;;;;;;8.70;100.00;101465.13;5095131;28;20077;-47
2023/05/06 01:31:12;;;;;;;42.60;33.72;;;;;;;8.70;100.00;101469.38;5094700;28;20114;-51
2023/05/06 01:33:49;;;;;;;43.83;36.63;;;;;;;8.66;100.00;101457.19;5093858;28;20024;-48
2023/05/06 01:36:22;;;;;;;44.78;36.00;;;;;;;8.70;100.00;101465.13;5094679;28;20028;-47
2023/05/06 01:39:03;;;;;;;47.08;36.45;;;;;;;8.67;100.00;101461.53;5094851;28;20028;-48
2023/05/06 01:41:32;;;;;;;43.25;33.83;;;;;;;8.58;100.00;101459.41;5093703;28;20032;-49
2023/05/06 01:43:59;;;;;;;47.13;35.72;;;;;;;8.57;100.00;101461.09;5094534;28;20353;-49
2023/05/06 01:46:25;;;;;;;43.10;34.97;;;;;;;8.52;100.00;101461.69;5093573;28;20024;-50
2023/05/06 01:48:56;;;;;;;42.20;35.83;;;;;;;8.60;100.00;101464.63;5094037;28;20028;-51
2023/05/06 01:51:22;;;;;;;55.60;42.50;;;;;;;8.63;100.00;101463.06;5094299;28;20031;-48
2023/05/06 01:53:47;;;;;;;55.60;41.75;;;;;;;8.60;100.00;101464.63;5093763;28;20012;-47
2023/05/06 01:56:12;;;;;;;44.13;36.13;;;;;;;8.51;100.00;101468.53;5094277;28;20107;-48
2023/05/06 01:58:38;;;;;;;54.65;40.53;;;;;;;8.49;100.00;101467.56;5093991;28;20024;-49
2023/05/06 02:01:03;;;;;;;52.38;39.17;;;;;;;8.39;100.00;101473.03;5093399;28;20123;-51
2023/05/06 02:03:28;;;;;;;53.17;39.70;;;;;;;8.43;100.00;101484.31;5093752;28;20035;-50
2023/05/06 02:05:54;;;;;;;52.33;41.50;;;;;;;8.47;100.00;101487.16;5094314;28;20028;-47
2023/05/06 02:08:19;;;;;;;54.85;42.35;;;;;;;8.52;100.00;101480.56;5092962;28;20487;-47
2023/05/06 02:10:45;;;;;;;54.85;42.05;;;;;;;8.50;100.00;101487.31;5094109;28;20472;-48
2023/05/06 02:13:10;;;;;;;52.28;40.33;;;;;;;8.47;100.00;101483.69;5093954;28;20025;-46
2023/05/06 02:15:35;;;;;;;44.10;37.22;;;;;;;8.38;100.00;101484.13;5092961;28;20036;-48
2023/05/06 02:18:01;;;;;;;42.58;35.60;;;;;;;8.33;100.00;101488.16;5093811;28;20020;-48
2023/05/06 02:20:26;;;;;;;44.22;36.92;;;;;;;8.36;100.00;101485.72;5093676;28;20101;-51
2023/05/06 02:22:51;;;;;;;36.30;31.95;;;;;;;8.22;100.00;101490.19;5093227;28;20017;-48
2023/05/06 02:25:17;;;;;;;35.85;30.50;;;;;;;8.13;100.00;101488.03;5093504;28;20510;-48
2023/05/06 02:27:43;;;;;;;34.42;29.40;;;;;;;8.14;100.00;101494.06;5093859;28;20024;-49
2023/05/06 02:30:09;;;;;;;42.75;34.15;;;;;;;8.02;100.00;101484.94;5092942;28;20471;-47
2023/05/06 02:32:35;;;;;;;42.22;35.42;;;;;;;8.14;100.00;101492.38;5093474;28;20097;-51
2023/05/06 02:35:00;;;;;;;47.08;37.08;;;;;;;8.09;100.00;101488.69;5093812;28;20353;-48
2023/05/06 02:37:26;;;;;;;47.97;38.67;;;;;;;8.04;100.00;101485.00;5092747;28;20028;-48
2023/05/06 02:39:51;;;;;;;45.88;37.80;;;;;;;8.07;100.00;101488.63;5093613;28;20056;-49
2023/05/06 02:42:16;;;;;;;42.90;35.63;;;;;;;8.03;100.00;101481.56;5093177;28;20059;-47
2023/05/06 02:44:42;;;;;;;47.80;37.25;;;;;;;8.03;100.00;101476.44;5092672;28;20368;-47
2023/05/06 02:47:07;;;;;;;46.28;37.28;;;;;;;7.97;100.00;101478.69;5093211;28;20099;-50
2023/05/06 02:49:32;;;;;;;46.38;36.20;;;;;;;7.86;100.00;101473.03;5092992;28;20129;-47
2023/05/06 02:51:57;;;;;;;48.28;37.70;;;;;;;7.91;100.00;101479.28;5092750;28;20027;-49
2023/05/06 02:54:23;;;;;;;48.58;39.40;;;;;;;7.98;100.00;101477.88;5093291;28;20036;-47
2023/05/06 02:56:48;;;;;;;48.22;38.33;;;;;;;7.93;100.00;101475.88;5092526;28;20028;-48
2023/05/06 02:59:13;;;;;;;49.13;39.33;;;;;;;7.88;100.00;101476.53;5093248;28;20042;-50
2023/05/06 03:01:38;;;;;;;47.83;37.65;;;;;;;7.85;100.00;101478.06;5092225;28;20069;-48
2023/05/06 03:04:04;;;;;;;37.45;32.75;;;;;;;7.70;100.00;101478.16;5092254;28;20024;-51
2023/05/06 03:06:30;;;;;;;36.58;31.98;;;;;;;7.70;100.00;101468.78;5092972;28;20053;-48
2023/05/06 03:08:56;;;;;;;42.55;34.47;;;;;;;7.74;100.00;101464.69;5093013;28;20078;-47
2023/05/06 03:11:21;;;;;;;41.72;35.40;;;;;;;7.74;100.00;101464.69;5091953;28;20020;-50
2023/05/06 03:13:47;;;;;;;42.05;35.72;;;;;;;7.70;100.00;101471.34;5092930;28;20062;-50
2023/05/06 03:16:15;;;;;;;40.53;31.92;;;;;;;7.61;100.00;101472.56;5092924;28;20020;-51
2023/05/06 03:18:40;;;;;;;34.78;31.00;;;;;;;7.56;100.00;101472.31;5091988;28;20448;-49
2023/05/06 03:21:06;;;;;;;41.65;35.83;;;;;;;7.63;100.00;101476.06;5093082;28;20119;-48
2023/05/06 03:23:31;;;;;;;44.00;37.30;;;;;;;7.57;100.00;101467.25;5092767;28;20028;-48
2023/05/06 03:25:57;;;;;;;49.42;39.80;;;;;;;7.58;100.00;101473.28;5092199;28;20028;-47
2023/05/06 03:28:22;;;;;;;50.70;38.88;;;;;;;7.59;100.00;101477.59;5092569;28;20115;-47
2023/05/06 03:30:48;;;;;;;51.33;40.78;;;;;;;7.62;100.00;101474.31;5092770;28;20062;-48
2023/05/06 03:33:13;;;;;;;56.75;42.85;;;;;;;7.66;100.00;101466.00;5092213;28;20020;-47
2023/05/06 03:35:39;;;;;;;52.55;39.67;;;;;;;7.63;100.00;101469.28;5092639;28;20031;-51
2023/05/06 03:38:04;;;;;;;47.72;37.55;;;;;;;7.57;100.00;101461.25;5092881;28;20020;-48
2023/05/06 03:40:30;;;;;;;46.35;38.80;;;;;;;7.61;100.00;101458.06;5091767;28;20391;-48
2023/05/06 03:42:55;;;;;;;49.85;38.00;;;;;;;7.60;100.00;101460.53;5092525;28;20382;-47
2023/05/06 03:45:20;;;;;;;45.53;36.08;;;;;;;7.50;100.00;101460.06;5092255;28;20024;-47
2023/05/06 03:47:45;;;;;;;50.72;36.70;;;;;;;7.46;100.00;101458.13;5092098;28;20029;-47
2023/05/06 03:50:11;;;;;;;41.85;34.75;;;;;;;7.51;100.00;101461.81;5092803;28;20037;-49
2023/05/06 03:52:37;;;;;;;48.38;36.42;;;;;;;7.50;100.00;101466.88;5092472;28;20031;-47
2023/05/06 03:55:02;;;;;;;45.55;35.65;;;;;;;7.47;100.00;101462.47;5091923;28;20446;-48
2023/05/06 03:57:28;;;;;;;49.42;37.58;;;;;;;7.51;100.00;101459.25;5092246;28;20395;-52
2023/05/06 03:59:53;;;;;;;50.45;38.45;;;;;;;7.54;100.00;101467.13;5092369;28;20027;-51
2023/05/06 04:02:19;;;;;;;45.30;36.17;;;;;;;7.49;100.00;101473.69;5091583;28;20058;-51
2023/05/06 04:04:44;;;;;;;46.20;37.03;;;;;;;7.51;100.00;101466.94;5092711;28;20024;-52
2023/05/06 04:07:09;;;;;;;44.45;34.55;;;;;;;7.50;100.00;101469.44;5091758;28;20140;-51
2023/05/06 04:09:35;;;;;;;48.28;35.47;;;;;;;7.50;100.00;101472.91;5091999;28;20036;-52
2023/05/06 04:12:02;;;;;;;43.90;35.17;;;;;;;7.52;100.00;101473.84;5092994;28;20024;-51
2023/05/06 04:14:27;;;;;;;43.63;35.78;;;;;;;7.55;100.00;101471.44;5095267;28;20016;-52
2023/05/06 04:16:52;;;;;;;48.15;36.65;;;;;;;7.55;100.00;101483.38;5096143;28;20078;-50
2023/05/06 04:19:18;;;;;;;45.35;35.15;;;;;;;7.61;100.00;101475.13;5096079;28;20055;-51
2023/05/06 04:21:43;;;;;;;45.80;35.53;;;;;;;7.58;100.00;101475.88;5095437;28;20073;-52
2023/05/06 04:24:08;;;;;;;42.55;31.02;;;;;;;7.55;100.00;101480.81;5096157;28;20020;-52
2023/05/06 04:26:34;;;;;;;33.83;29.30;;;;;;;7.49;100.00;101477.91;5095901;28;20030;-51
2023/05/06 04:28:59;;;;;;;40.78;32.75;;;;;;;7.62;100.00;101474.31;5095342;28;20016;-52
2023/05/06 04:31:28;;;;;;;40.70;31.35;;;;;;;7.65;100.00;101479.63;5095573;28;20066;-52
2023/05/06 04:33:53;;;;;;;41.58;32.10;;;;;;;7.77;100.00;101479.34;5096078;28;20048;-50
2023/05/06 04:36:19;;;;;;;44.47;34.42;;;;;;;7.82;100.00;101483.91;5094907;28;20061;-50
2023/05/06 04:38:46;;;;;;;42.53;33.30;;;;;;;7.91;100.00;101486.97;5095876;28;20028;-50
2023/05/06 04:41:11;;;;;;;47.60;36.33;;;;;;;8.05;100.00;101489.34;5095605;28;20027;-50
2023/05/06 04:43:36;;;;;;;43.13;33.10;;;;;;;8.08;100.00;101490.38;5094618;28;20085;-51
2023/05/06 04:46:02;;;;;;;38.88;31.73;;;;;;;8.19;100.00;101484.91;5095671;28;20024;-51
2023/05/06 04:48:27;;;;;;;39.70;32.53;;;;;;;8.27;100.00;101490.41;5095560;28;20023;-51
2023/05/06 04:50:52;;;;;;;38.92;31.35;;;;;;;8.41;100.00;101491.97;5095016;28;20024;-52
2023/05/06 04:53:18;;;;;;;39.88;32.60;;;;;;;8.49;100.00;101493.25;5095156;28;20460;-51
2023/05/06 04:55:43;;;;;;;44.63;33.53;;;;;;;8.66;100.00;101500.88;5095535;28;20037;-51
2023/05/06 04:58:08;;;;;;;41.50;34.05;;;;;;;8.71;100.00;101502.00;5094686;28;20097;-48
2023/05/06 05:00:34;;;;;;;44.78;32.08;;;;;;;8.84;100.00;101503.44;5094901;28;20016;-51
2023/05/06 05:03:00;;;;;;;44.88;32.55;;;;;;;8.90;100.00;101503.75;5095546;28;20456;-52
2023/05/06 05:05:26;;;;;;;39.35;31.98;;;;;;;9.02;100.00;101495.72;5094453;28;20028;-51
2023/05/06 05:07:51;;;;;;;40.60;32.28;;;;;;;9.15;100.00;101500.59;5095289;28;20025;-51
2023/05/06 05:10:17;;;;;;;42.72;34.13;;;;;;;9.28;100.00;101502.03;5094381;28;20059;-52
2023/05/06 05:12:42;;;;;;;43.50;33.03;;;;;;;9.32;100.00;101505.66;5094960;28;20115;-51
2023/05/06 05:15:08;;;;;;;41.40;29.63;;;;;;;9.42;100.00;101506.94;5095049;28;20036;-51
2023/05/06 05:17:33;;;;;;;41.08;31.05;;;;;;;9.52;100.00;101511.69;5094212;28;20057;-51
2023/05/06 05:19:58;;;;;;;40.10;28.30;;;;;;;9.52;100.00;101510.00;5095179;28;20375;-52
2023/05/06 05:22:24;;;;;;;36.70;26.92;;;;;;;9.56;100.00;101519.59;5094738;28;20043;-52
2023/05/06 05:24:50;;;;;;;32.00;25.83;;;;;;;9.55;100.00;101520.44;5093511;28;20047;-52
2023/05/06 05:27:15;;;;;;;33.67;23.98;;;;;;;9.58;100.00;101511.06;5094662;28;20387;-48
2023/05/06 05:29:40;;;;;;;33.55;24.15;;;;;;;9.57;100.00;101512.78;5095362;28;20020;-51
2023/05/06 05:32:06;;;;;;;31.00;23.48;;;;;;;9.60;100.00;101524.91;5094263;28;20028;-49
2023/05/06 05:34:31;;;;;;;32.28;24.05;;;;;;;9.61;100.00;101529.25;5094520;28;20111;-52
2023/05/06 05:36:57;;;;;;;31.10;23.48;;;;;;;9.63;100.00;101530.19;5094825;28;20052;-52
2023/05/06 05:39:22;;;;;;;29.30;22.92;;;;;;;9.64;100.00;101527.66;5093585;28;20483;-53
2023/05/06 05:41:48;;;;;;;27.20;21.52;;;;;;;9.68;100.00;101528.69;5094514;28;20032;-52
2023/05/06 05:44:13;;;;;;;30.98;22.58;;;;;;;9.80;100.00;101528.34;5094442;28;20028;-52
2023/05/06 05:46:39;;;;;;;29.58;22.70;;;;;;;9.83;100.00;101529.34;5093464;28;20489;-52
2023/05/06 05:49:05;;;;;;;27.83;22.42;;;;;;;9.94;100.00;101536.66;5094296;28;20032;-52
2023/05/06 05:51:30;;;;;;;30.48;23.27;;;;;;;10.02;100.00;101537.91;5094091;28;20056;-51
2023/05/06 05:53:55;;;;;;;29.83;22.80;;;;;;;10.07;100.00;101532.94;5093891;28;20027;-50
2023/05/06 05:56:21;;;;;;;31.15;21.77;;;;;;;10.09;100.00;101541.63;5094291;28;20028;-51
2023/05/06 05:58:46;;;;;;;25.30;20.08;;;;;;;10.09;100.00;101541.63;5094203;28;20103;-51
2023/05/06 06:01:11;;;;;;;24.85;18.38;;;;;;;10.15;100.00;101545.31;5093633;28;20032;-52
2023/05/06 06:03:37;;;;;;;25.63;18.20;;;;;;;10.17;100.00;101540.22;5093774;28;20090;-48
2023/05/06 06:06:03;;;;;;;23.77;18.52;;;;;;;10.20;100.00;101536.09;5094099;28;20024;-52
2023/05/06 06:08:28;;;;;;;29.88;18.80;;;;;;;10.25;100.00;101538.88;5092960;28;20052;-52
2023/05/06 06:10:54;;;;;;;25.05;17.48;;;;;;;10.28;100.00;101540.69;5093980;28;20121;-52
2023/05/06 06:13:19;;;;;;;27.25;17.88;;;;;;;10.34;100.00;101528.94;5093696;28;20024;-49
2023/05/06 06:15:45;;;;;;;25.15;17.77;;;;;;;10.39;100.00;101531.72;5093447;28;20024;-52
2023/05/06 06:18:10;;;;;;;25.30;17.70;;;;;;;10.45;100.00;101537.16;5094056;28;20012;-52
2023/05/06 06:20:35;;;;;;;25.10;18.33;;;;;;;10.54;100.00;101540.09;5093431;28;20039;-51
2023/05/06 06:23:01;;;;;;;24.65;17.00;;;;;;;10.57;100.00;101541.91;5093379;28;20365;-52
2023/05/06 06:25:26;;;;;;;23.35;18.00;;;;;;;10.61;100.00;101538.63;5093545;28;20043;-51
2023/05/06 06:27:54;;;;;;;24.92;17.48;;;;;;;10.66;100.00;101538.84;5092954;28;20468;-51
2023/05/06 06:30:19;;;;;;;;;;;;;;;10.73;100.00;101540.84;5094004;28;20054;-52
2023/05/06 06:32:52;;;;;;;24.70;18.33;;;;;;;10.80;100.00;101545.41;5093766;28;19916;-51
2023/05/06 06:35:22;;;;;;;21.73;17.00;;;;;;;10.86;100.00;101537.94;5092152;28;20032;-52
2023/05/06 06:37:47;;;;;;;22.25;16.42;;;;;;;10.93;100.00;101540.75;5093167;28;20031;-52
2023/05/06 06:40:13;;;;;;;22.55;16.42;;;;;;;11.00;100.00;101542.75;5093601;28;20016;-52
2023/05/06 06:42:38;;;;;;;22.35;16.98;;;;;;;11.12;100.00;101538.06;5092403;28;20020;-50
2023/05/06 06:45:04;;;;;;;21.65;17.33;;;;;;;11.24;100.00;101542.81;5093585;28;20435;-49
2023/05/06 06:47:29;;;;;;;21.52;16.98;;;;;;;11.38;100.00;101545.91;5093167;28;20024;-49
2023/05/06 06:49:55;;;;;;;24.50;16.50;;;;;;;11.50;100.00;101542.91;5092678;28;20086;-52
2023/05/06 06:52:20;;;;;;;23.55;16.65;;;;;;;11.55;100.00;101554.28;5093074;28;20038;-52
2023/05/06 06:54:45;;;;;;;22.77;17.52;;;;;;;11.66;100.00;101552.13;5093304;28;20024;-52
2023/05/06 06:57:10;;;;;;;25.80;17.40;;;;;;;11.78;100.00;101555.13;5092516;28;20522;-46
2023/05/06 06:59:36;;;;;;;24.98;17.67;;;;;;;11.94;100.00;101545.34;5092899;28;20030;-52
2023/05/06 07:02:02;;;;;;;23.55;16.65;;;;;;;12.01;100.00;101555.09;5093112;28;20032;-52
2023/05/06 07:04:27;;;;;;;26.33;17.80;;;;;;;12.16;100.00;101547.91;5092102;28;20391;-51
2023/05/06 07:06:52;;;;;;;24.20;18.80;;;;;;;12.24;100.00;101552.44;5093099;28;20115;-52
2023/05/06 07:09:18;;;;;;;23.85;18.10;;;;;;;12.34;100.00;101549.31;5092686;28;20047;-52
2023/05/06 07:11:43;;;;;;;21.23;15.85;;;;;;;12.46;100.00;101554.00;5092199;28;20026;-52
2023/05/06 07:14:10;;;;;;;23.55;16.65;;;;;;;12.64;100.00;101561.50;5093226;28;20032;-52
2023/05/06 07:16:35;;;;;;;25.33;16.92;;;;;;;12.63;100.00;101562.34;5092658;28;20413;-51
2023/05/06 07:19:00;;;;;;;24.55;16.13;;;;;;;12.71;100.00;101560.03;5092372;28;20106;-51
2023/05/06 07:21:26;;;;;;;24.08;16.23;;;;;;;12.84;100.00;101567.34;5092487;28;20043;-52
2023/05/06 07:23:52;;;;;;;21.15;14.65;;;;;;;12.91;100.00;101568.41;5092874;28;20024;-52
2023/05/06 07:26:17;;;;;;;23.08;15.75;;;;;;;13.01;100.00;101567.84;5091723;28;20047;-52
2023/05/06 07:28:42;;;;;;;24.60;16.60;;;;;;;13.16;100.00;101563.16;5093009;28;20063;-51
2023/05/06 07:31:07;;;;;;;25.75;17.52;;;;;;;13.30;100.00;101567.88;5092252;28;20028;-51
2023/05/06 07:33:33;;;;;;;26.13;16.77;;;;;;;13.42;100.00;101568.25;5092538;28;20024;-47
2023/05/06 07:35:58;;;;;;;23.77;15.10;;;;;;;13.39;100.00;101567.28;5092814;28;20043;-52
2023/05/06 07:38:23;;;;;;;23.58;15.20;;;;;;;13.44;100.00;101569.19;5091727;28;20065;-52
2023/05/06 07:40:50;;;;;;;26.80;17.65;;;;;;;13.48;100.00;101571.03;5092537;28;20026;-51
2023/05/06 07:43:16;;;;;;;33.22;20.45;;;;;;;13.62;100.00;101570.56;5092677;28;20024;-49
2023/05/06 07:45:41;;;;;;;32.47;20.15;;;;;;;13.63;100.00;101567.13;5091888;28;20020;-51
2023/05/06 07:48:06;;;;;;;33.50;20.60;;;;;;;13.79;100.00;101571.91;5095085;28;20047;-52
2023/05/06 07:50:32;;;;;;;35.58;22.27;;;;;;;14.06;100.00;101562.25;5096490;28;20031;-50
2023/05/06 07:52:58;;;;;;;34.22;20.80;;;;;;;14.08;100.00;101571.81;5095914;28;20020;-51
2023/05/06 07:55:24;;;;;;;36.72;21.55;;;;;;;14.23;100.00;101570.47;5096326;28;20101;-53
2023/05/06 07:57:50;;;;;;;39.65;23.13;;;;;;;14.43;100.00;101571.84;5096637;28;20459;-51
2023/05/06 08:00:16;;;;;;;35.25;20.75;;;;;;;14.39;100.00;101572.63;5095483;28;20032;-48
2023/05/06 08:02:45;;;;;;;27.90;17.45;;;;;;;14.53;100.00;101575.56;5096578;28;20032;-51
2023/05/06 08:05:11;;;;;;;27.08;18.75;;;;;;;14.61;100.00;101573.19;5096541;28;20048;-50
2023/05/06 08:07:36;;;;;;;26.20;18.23;;;;;;;14.73;100.00;101572.63;5095442;28;20105;-50
2023/05/06 08:10:02;;;;;;;29.98;19.33;;;;;;;14.75;100.00;101576.16;5096275;28;20044;-45
2023/05/06 08:12:27;;;;;;;30.30;19.77;;;;;;;14.80;100.00;101579.72;5096287;28;20098;-47
2023/05/06 08:14:54;;;;;;;31.85;20.20;;;;;;;15.07;100.00;101582.09;5095543;28;20020;-49
2023/05/06 08:17:19;;;;;;;32.72;20.08;;;;;;;15.09;100.00;101588.19;5095248;28;20027;-47
2023/05/06 08:19:45;;;;;;;27.80;19.08;;;;;;;15.17;100.00;101584.88;5095634;28;20028;-50
2023/05/06 08:22:10;;;;;;;25.88;16.80;;;;;;;15.36;100.00;101587.03;5095600;28;20123;-51
2023/05/06 08:24:36;;;;;;;26.85;16.80;;;;;;;15.40;100.00;101582.78;5093601;28;20052;-52
2023/05/06 08:27:03;;;;;;;20.38;14.63;;;;;;;15.57;100.00;101585.75;5094083;28;20024;-52
2023/05/06 08:29:28;;;;;;;21.85;15.43;;;;;;;15.69;100.00;101580.81;5093039;28;20025;-50
2023/05/06 08:31:53;;;;;;;19.25;13.70;;;;;;;15.90;100.00;101579.50;5093957;28;20062;-51
2023/05/06 08:34:20;;;;;;;18.00;12.45;;;;;;;16.05;100.00;101573.72;5092868;28;20050;-51
2023/05/06 08:36:45;;;;;;;20.13;11.30;;;;;;;16.11;100.00;101571.22;5093754;28;20035;-51
2023/05/06 08:39:13;;;;;;;14.38;10.27;;;;;;;16.37;100.00;101571.72;5095048;28;20024;-51
2023/05/06 08:41:39;;;;;;;17.30;11.20;;;;;;;16.57;100.00;101572.03;5094863;28;20035;-49
2023/05/06 08:44:06;;;;;;;15.32;10.00;;;;;;;16.69;99.10;101573.09;5095631;28;20400;-52
2023/05/06 08:46:32;;;;;;;10.90;7.45;;;;;;;16.72;92.45;101567.91;5095640;28;20115;-51
2023/05/06 08:48:58;;;;;;;13.60;7.97;;;;;;;16.68;96.24;101572.22;5094912;28;20028;-50
2023/05/06 08:51:27;;;;;;;14.32;8.43;;;;;;;16.61;93.88;101570.34;5095291;28;20031;-52
2023/05/06 08:53:53;;;;;;;13.48;9.57;;;;;;;16.75;97.20;101563.63;5095444;28;20468;-52
2023/05/06 08:56:23;;;;;;;12.75;8.18;;;;;;;17.02;97.42;101561.47;5094688;28;20024;-52
2023/05/06 08:58:50;;;;;;;14.30;9.10;;;;;;;16.98;93.86;101568.38;5094478;28;20053;-51
2023/05/06 09:01:16;;;;;;;14.88;8.45;;;;;;;16.95;93.52;101565.69;5094951;28;20581;-51
2023/05/06 09:03:42;;;;;;;14.40;8.13;;;;;;;17.14;92.53;101558.16;5094515;28;20040;-52
2023/05/06 09:06:08;;;;;;;11.20;8.05;;;;;;;17.08;87.55;101553.72;5095304;28;20024;-49
2023/05/06 09:08:35;;;;;;;11.90;7.53;;;;;;;17.24;88.47;101557.44;5094971;28;20123;-51
2023/05/06 09:11:00;;;;;;;11.40;7.00;;;;;;;17.40;90.64;101558.50;5094562;28;20484;-51
2023/05/06 09:13:25;;;;;;;14.80;9.63;;;;;;;17.58;90.50;101552.63;5094886;28;20111;-52
2023/05/06 09:15:52;;;;;;;16.00;9.82;;;;;;;17.76;91.67;101557.19;5095170;28;20115;-52
2023/05/06 09:18:17;;;;;;;13.43;8.20;;;;;;;17.94;88.00;101553.94;5094644;28;20070;-52
2023/05/06 09:20:45;;;;;;;12.15;6.88;;;;;;;17.68;81.84;101549.28;5095158;28;20063;-52
2023/05/06 09:23:13;;;;;;;10.95;6.65;;;;;;;17.96;89.10;101549.63;5095142;28;20024;-52
2023/05/06 09:25:38;;;;;;;13.77;8.00;;;;;;;18.15;84.97;101555.03;5094083;28;20020;-51
2023/05/06 09:28:05;;;;;;;12.10;6.95;;;;;;;18.29;83.13;101557.75;5094760;28;20177;-51
2023/05/06 09:30:31;;;;;;;11.73;7.15;;;;;;;18.31;81.02;101551.69;5094144;28;20024;-51
2023/05/06 09:32:56;;;;;;;9.65;6.25;;;;;;;18.44;80.00;101557.91;5094553;28;20030;-52
2023/05/06 09:35:27;;;;;;;9.52;6.78;;;;;;;18.58;80.66;101556.25;5094508;28;20030;-52
2023/05/06 09:37:52;;;;;;;12.35;6.55;;;;;;;18.87;80.69;101552.13;5094026;28;20891;-52
2023/05/06 09:40:17;;;;;;;9.70;5.75;;;;;;;19.05;80.51;101544.41;5094445;28;20027;-51
2023/05/06 09:42:43;;;;;;;8.07;5.78;;;;;;;19.06;73.59;101551.38;5094823;28;20083;-52
2023/05/06 09:45:09;;;;;;;9.63;5.50;;;;;;;19.73;76.45;101552.53;5093819;28;20024;-52
2023/05/06 09:47:34;;;;;;;9.00;5.22;;;;;;;19.58;71.63;101549.88;5094138;28;20028;-52
2023/05/06 09:50:03;;;;;;;10.32;5.10;;;;;;;19.67;71.41;101546.44;5094416;28;20585;-51
2023/05/06 09:52:29;;;;;;;8.98;5.10;;;;;;;19.98;72.41;101551.75;5093521;28;20028;-52
2023/05/06 09:54:55;;;;;;;8.40;5.05;;;;;;;20.12;68.91;101546.56;5093261;28;20472;-52
2023/05/06 09:57:21;;;;;;;8.65;4.80;;;;;;;20.01;66.88;101543.91;5093362;28;20471;-52
2023/05/06 09:59:47;;;;;;;6.40;3.80;;;;;;;20.11;66.45;101542.19;5092718;28;20031;-52
2023/05/06 10:02:13;;;;;;;7.43;4.20;;;;;;;20.35;67.88;101542.19;5093496;28;20024;-49
2023/05/06 10:04:40;;;;;;;8.20;4.55;;;;;;;20.49;62.60;101533.47;5092982;28;20047;-52
2023/05/06 10:07:08;;;;;;;6.57;3.58;;;;;;;20.84;61.80;101535.22;5092721;28;20024;-52
2023/05/06 10:09:35;;;;;;;7.82;3.95;;;;;;;20.38;62.31;101546.56;5092824;28;20067;-52
2023/05/06 10:12:01;;;;;;;9.45;4.38;;;;;;;20.32;62.22;101536.97;5093288;28;20482;-52
2023/05/06 10:14:27;;;;;;;6.97;3.88;;;;;;;20.76;61.13;101531.72;5092419;28;20028;-49
2023/05/06 10:16:53;;;;;;;10.13;3.83;;;;;;;20.84;59.69;101533.47;5093534;28;20063;-51
2023/05/06 10:19:23;;;;;;;7.63;4.15;;;;;;;21.89;57.17;101531.31;5093363;28;20024;-52
2023/05/06 10:21:56;;;;;;;9.05;3.90;;;;;;;23.21;55.79;101523.97;5092339;28;20032;-51
2023/05/06 10:24:33;;;;;;;7.53;3.13;;;;;;;23.48;49.85;101521.88;5092849;28;20032;-51
2023/05/06 10:27:04;;;;;;;5.75;2.97;;;;;;;23.46;50.31;101521.03;5092468;28;20027;-51
2023/05/06 10:29:31;;;;;;;12.73;3.65;;;;;;;23.63;47.80;101519.03;5092474;28;20349;-51
2023/05/06 10:31:59;;;;;;;5.32;3.08;;;;;;;23.92;48.07;101523.03;5093348;28;20024;-52
2023/05/06 10:34:25;;;;;;;7.78;3.03;;;;;;;24.07;48.10;101518.44;5092152;28;20044;-52
2023/05/06 10:36:56;;;;;;;8.63;2.90;;;;;;;23.98;48.78;101525.56;5092677;28;20050;-52
2023/05/06 10:39:22;;;;;;;5.63;2.35;;;;;;;23.79;46.63;101518.81;5092704;28;20028;-52
2023/05/06 10:41:48;;;;;;;4.03;2.40;;;;;;;23.66;48.09;101511.09;5091844;28;20063;-52
2023/05/06 10:44:13;;;;;;;4.60;2.10;;;;;;;23.42;50.73;101511.44;5092757;28;20064;-52
2023/05/06 10:47:04;;;;;;;3.92;2.17;;;;;;;23.68;52.70;101508.47;5092553;28;20437;-52
2023/05/06 10:49:30;;;;;;;5.93;2.17;;;;;;;23.55;49.75;101498.97;5088356;28;20039;-53
2023/05/06 10:52:12;;;;;;;5.40;2.10;;;;;;;23.32;53.03;101508.06;5092697;28;20107;-53
2023/05/06 10:54:50;;;;;;;6.50;2.25;;;;;;;23.41;51.30;101499.16;5092196;28;20028;-52
2023/05/06 10:57:16;;;;;;;4.28;1.90;;;;;;;22.96;48.17;101503.22;5091872;28;20054;-52
2023/05/06 10:59:45;;;;;;;5.50;1.98;;;;;;;23.50;47.71;101504.31;5092346;28;20027;-52
2023/05/06 11:02:11;;;;;;;5.82;1.67;;;;;;;23.54;48.41;101498.13;5091707;28;20484;-52
2023/05/06 11:04:38;;;;;;;4.88;1.80;;;;;;;23.10;46.35;101496.91;5092074;28;20063;-52